Time;durP1;ratioP1;P1;durP2;ratioP2;P2;SDS_P1;SDS_P2;PMS_P1;PMS_P2;Temp;Humidity;BMP_temperature;BMP_pressure;BME280_temperature;BME280_humidity;BME280_pressure;Samples;Min_cycle;Max_cycle;Signal;HPM_P1;HPM_P2
2020/12/22 00:01:54;;;;;;;16.55;11.60;;;;;;;7.80;77.69;95957.69;4976177;28;20130;-56
2020/12/22 00:04:20;;;;;;;5.90;4.20;;;;;;;7.88;77.42;95963.09;4984424;28;20393;-54
2020/12/22 00:06:47;;;;;;;5.78;3.90;;;;;;;7.81;77.77;95962.75;4990531;28;20065;-53
2020/12/22 00:09:13;;;;;;;7.38;4.32;;;;;;;7.63;78.43;95951.13;4989949;28;20110;-51
2020/12/22 00:11:40;;;;;;;7.05;4.60;;;;;;;7.74;78.47;95959.75;4990783;28;20444;-51
2020/12/22 00:14:06;;;;;;;6.20;4.20;;;;;;;7.72;78.67;95954.66;4991439;28;20054;-50
2020/12/22 00:16:36;;;;;;;5.85;4.28;;;;;;;7.83;77.84;95936.31;4989973;28;20062;-56
2020/12/22 00:19:04;;;;;;;6.25;4.40;;;;;;;7.82;78.33;95947.41;4991431;28;20070;-52
2020/12/22 00:21:32;;;;;;;6.35;4.20;;;;;;;7.69;79.08;95947.19;4991842;28;20074;-51
2020/12/22 00:23:58;;;;;;;6.47;4.40;;;;;;;7.71;79.35;95946.91;4990988;28;20084;-50
2020/12/22 00:26:25;;;;;;;6.53;4.53;;;;;;;7.67;79.53;95949.44;4991452;28;20133;-50
2020/12/22 00:28:51;;;;;;;6.82;4.53;;;;;;;7.60;79.83;95949.06;4990026;28;20440;-53
2020/12/22 00:31:18;;;;;;;7.65;4.60;;;;;;;7.63;79.83;95956.53;4982799;28;20389;-50
2020/12/22 00:33:46;;;;;;;8.55;4.75;;;;;;;7.64;79.87;95955.44;4989995;28;20060;-51
2020/12/22 00:36:13;;;;;;;7.13;4.60;;;;;;;7.72;79.41;95954.66;4991239;28;20137;-52
2020/12/22 00:38:39;;;;;;;7.97;4.47;;;;;;;7.72;79.51;95956.56;4989253;28;20759;-50
2020/12/22 00:41:06;;;;;;;11.35;6.22;;;;;;;7.73;79.83;95953.56;4991235;28;20492;-50
2020/12/22 00:43:32;;;;;;;5.80;4.78;;;;;;;7.69;79.91;95960.66;4986993;28;20078;-50
2020/12/22 00:45:58;;;;;;;6.30;4.60;;;;;;;7.82;79.50;95958.97;4991680;28;20082;-50
2020/12/22 00:48:27;;;;;;;5.93;4.22;;;;;;;7.90;79.08;95960.09;4991508;28;20046;-52
2020/12/22 00:50:54;;;;;;;7.93;4.07;;;;;;;7.93;78.89;95960.25;4989925;28;20050;-50
2020/12/22 00:53:20;;;;;;;7.15;4.47;;;;;;;8.00;78.88;95967.09;4990942;28;20137;-54
2020/12/22 00:55:47;;;;;;;6.28;4.18;;;;;;;7.95;79.01;95962.63;4983942;28;20535;-51
2020/12/22 00:58:14;;;;;;;5.35;3.90;;;;;;;7.93;79.15;95962.16;4993626;28;20527;-55
2020/12/22 01:00:41;;;;;;;5.90;4.00;;;;;;;7.96;79.35;95962.34;5005549;28;20064;-57
2020/12/22 01:03:07;;;;;;;6.57;4.10;;;;;;;7.97;79.30;95976.59;4993255;28;20542;-57
2020/12/22 01:05:33;;;;;;;5.05;3.92;;;;;;;7.93;79.55;95965.66;4991869;28;20516;-54
2020/12/22 01:08:00;;;;;;;6.45;3.85;;;;;;;7.95;79.52;95973.41;4991830;28;20069;-56
2020/12/22 01:10:26;;;;;;;4.93;3.63;;;;;;;8.05;79.43;95972.31;5004022;28;20128;-50
2020/12/22 01:12:53;;;;;;;6.03;3.33;;;;;;;8.01;79.52;95966.75;4992254;28;20097;-55
2020/12/22 01:15:21;;;;;;;5.03;3.13;;;;;;;7.97;79.68;95974.69;4958903;28;20469;-54
2020/12/22 01:17:48;;;;;;;4.68;3.15;;;;;;;7.86;80.34;95976.06;4991897;28;20070;-55
2020/12/22 01:20:14;;;;;;;4.22;2.75;;;;;;;7.89;80.63;95970.06;4995045;28;20073;-53
2020/12/22 01:22:42;;;;;;;4.95;3.40;;;;;;;7.87;80.57;95968.81;5005052;28;20038;-54
2020/12/22 01:25:09;;;;;;;4.07;2.90;;;;;;;7.84;81.03;95967.53;4999426;28;20065;-54
2020/12/22 01:27:35;;;;;;;4.88;2.80;;;;;;;7.80;81.47;95960.38;4997426;28;20081;-51
2020/12/22 01:30:02;;;;;;;5.10;3.00;;;;;;;7.70;82.27;95964.16;5011393;28;20120;-52
2020/12/22 01:32:30;;;;;;;5.65;2.92;;;;;;;7.67;82.53;95962.91;5011595;28;20050;-52
2020/12/22 01:34:56;;;;;;;4.10;2.47;;;;;;;7.76;82.52;95962.09;5014433;28;20053;-52
2020/12/22 01:37:22;;;;;;;3.50;2.53;;;;;;;7.76;82.96;95964.81;4997729;28;20131;-54
2020/12/22 01:39:49;;;;;;;3.53;2.33;;;;;;;7.85;82.66;95962.94;4994318;28;20050;-49
2020/12/22 01:42:15;;;;;;;3.78;2.58;;;;;;;7.85;82.95;95958.34;5005767;28;20061;-55
2020/12/22 01:44:43;;;;;;;4.82;2.90;;;;;;;7.81;83.25;95962.75;5014039;28;20042;-50
2020/12/22 01:47:09;;;;;;;3.90;2.50;;;;;;;7.88;83.23;95957.72;5014768;28;20404;-55
2020/12/22 01:49:36;;;;;;;3.95;2.60;;;;;;;7.80;83.90;95953.09;5006189;28;20497;-54
2020/12/22 01:52:04;;;;;;;4.00;2.22;;;;;;;7.90;83.79;95949.31;5003309;28;20084;-53
2020/12/22 01:54:31;;;;;;;4.07;2.88;;;;;;;8.03;83.44;95944.91;5001014;28;20050;-51
2020/12/22 01:56:58;;;;;;;4.07;2.83;;;;;;;8.04;83.35;95949.97;4993943;28;20054;-53
2020/12/22 01:59:25;;;;;;;4.65;2.65;;;;;;;8.11;83.16;95947.59;4993687;28;20134;-56
2020/12/22 02:01:53;;;;;;;7.00;4.28;;;;;;;8.12;83.33;95954.56;4993780;28;20053;-56
2020/12/22 02:04:21;;;;;;;7.82;3.75;;;;;;;8.15;83.00;95951.22;4993441;28;20500;-52
2020/12/22 02:06:48;;;;;;;4.85;2.75;;;;;;;8.19;82.90;95948.72;4994714;28;20077;-53
2020/12/22 02:09:15;;;;;;;4.57;2.88;;;;;;;8.06;83.69;95931.59;4993655;28;20047;-56
2020/12/22 02:11:42;;;;;;;4.43;2.80;;;;;;;8.08;83.82;95925.88;4995023;28;20061;-56
2020/12/22 02:14:10;;;;;;;3.25;2.42;;;;;;;8.28;82.75;95917.16;4994136;28;20046;-54
2020/12/22 02:16:38;;;;;;;3.53;2.47;;;;;;;8.25;82.76;95906.22;4994447;28;20133;-54
2020/12/22 02:19:24;;;;;;;6.30;2.67;;;;;;;8.47;81.96;95898.00;4993749;28;20042;-51
2020/12/22 02:21:51;;;;;;;5.47;2.60;;;;;;;8.47;82.08;95903.38;4993649;28;20141;-52
2020/12/22 02:24:17;;;;;;;3.92;2.60;;;;;;;8.60;81.28;95907.81;4994044;28;20423;-51
2020/12/22 02:26:43;;;;;;;4.35;2.70;;;;;;;8.70;81.02;95911.28;4994350;28;20504;-56
2020/12/22 02:29:10;;;;;;;3.80;2.63;;;;;;;8.58;81.40;95904.66;4993757;28;20129;-52
2020/12/22 02:31:37;;;;;;;3.75;2.53;;;;;;;8.60;81.60;95907.03;4994468;28;20070;-52
2020/12/22 02:34:04;;;;;;;3.88;2.78;;;;;;;8.72;81.00;95906.38;4993801;28;20054;-56
2020/12/22 02:36:33;;;;;;;4.20;2.72;;;;;;;8.76;80.79;95904.63;4992280;28;20137;-50
2020/12/22 02:39:00;;;;;;;4.05;2.40;;;;;;;8.76;80.67;95908.09;4992531;28;20460;-55
2020/12/22 02:41:26;;;;;;;3.67;2.40;;;;;;;8.76;80.63;95910.78;4994442;28;20058;-52
2020/12/22 02:43:52;;;;;;;3.80;2.30;;;;;;;8.81;80.61;95909.84;4993682;28;20050;-52
2020/12/22 02:46:19;;;;;;;4.40;2.90;;;;;;;8.79;80.47;95903.97;4992620;28;20133;-56
2020/12/22 02:48:45;;;;;;;3.67;2.53;;;;;;;8.65;81.24;95909.56;4993919;28;20060;-53
2020/12/22 02:51:11;;;;;;;3.72;2.42;;;;;;;8.65;81.30;95910.34;4992686;28;20054;-51
2020/12/22 02:53:38;;;;;;;3.83;2.42;;;;;;;8.64;81.46;95911.47;4994191;28;20101;-56
2020/12/22 02:56:05;;;;;;;3.65;1.95;;;;;;;8.75;80.95;95911.91;4992993;28;20050;-50
2020/12/22 02:58:31;;;;;;;3.05;2.13;;;;;;;8.73;80.92;95894.47;4993862;28;20058;-55
2020/12/22 03:00:58;;;;;;;3.13;2.13;;;;;;;8.78;80.73;95897.00;4993051;28;20050;-53
2020/12/22 03:03:24;;;;;;;4.10;1.90;;;;;;;8.83;80.29;95888.72;4993920;28;20503;-54
2020/12/22 03:05:51;;;;;;;3.83;2.30;;;;;;;8.83;80.25;95876.03;4992740;28;20087;-51
2020/12/22 03:08:17;;;;;;;4.30;2.70;;;;;;;8.98;79.49;95879.31;4993858;28;20498;-53
2020/12/22 03:10:45;;;;;;;4.43;2.38;;;;;;;8.93;79.87;95891.06;4993215;28;20105;-56
2020/12/22 03:13:11;;;;;;;4.72;2.80;;;;;;;8.92;79.71;95873.31;4993850;28;20054;-55
2020/12/22 03:15:38;;;;;;;4.75;2.90;;;;;;;9.02;79.02;95877.56;4991403;28;20735;-56
2020/12/22 03:18:06;;;;;;;4.30;3.03;;;;;;;9.11;78.66;95881.81;4993788;28;20436;-50
2020/12/22 03:20:32;;;;;;;3.90;2.70;;;;;;;9.00;79.54;95887.88;4992631;28;20468;-54
2020/12/22 03:22:58;;;;;;;4.88;3.20;;;;;;;8.94;79.26;95895.38;4992443;28;20369;-55
2020/12/22 03:25:25;;;;;;;3.95;2.88;;;;;;;8.80;80.06;95905.53;4991348;28;20046;-54
2020/12/22 03:27:52;;;;;;;5.53;2.97;;;;;;;8.66;80.91;95917.31;4992642;28;20057;-56
2020/12/22 03:30:18;;;;;;;5.45;2.63;;;;;;;8.51;81.72;95908.94;4993251;28;20051;-50
2020/12/22 03:32:44;;;;;;;4.80;3.00;;;;;;;8.69;81.36;95913.19;4992956;28;20081;-54
2020/12/22 03:35:11;;;;;;;6.07;3.30;;;;;;;8.80;80.47;95906.34;4993164;28;20081;-56
2020/12/22 03:37:39;;;;;;;3.65;2.60;;;;;;;8.89;79.89;95904.41;4992253;28;20054;-56
2020/12/22 03:40:07;;;;;;;4.40;2.85;;;;;;;9.01;79.61;95911.06;4975890;28;20112;-53
2020/12/22 03:42:33;;;;;;;3.67;2.30;;;;;;;8.91;80.45;95916.81;4992341;28;20042;-56
2020/12/22 03:45:00;;;;;;;3.88;2.53;;;;;;;8.86;80.87;95913.16;4992841;28;20046;-52
2020/12/22 03:47:27;;;;;;;3.60;2.25;;;;;;;9.07;80.26;95913.25;4992105;28;20133;-53
2020/12/22 03:49:53;;;;;;;4.13;2.47;;;;;;;9.07;80.06;95913.25;4993094;28;20126;-53
2020/12/22 03:52:20;;;;;;;4.07;1.92;;;;;;;8.89;81.04;95917.91;4991333;28;20086;-55
2020/12/22 03:54:46;;;;;;;3.00;2.20;;;;;;;9.03;80.70;95915.00;4992797;28;20054;-54
2020/12/22 03:57:14;;;;;;;4.15;1.90;;;;;;;9.10;80.20;95919.94;4990786;28;20061;-54
2020/12/22 03:59:41;;;;;;;3.17;2.08;;;;;;;9.17;80.20;95905.94;4992565;28;20042;-54
2020/12/22 04:02:07;;;;;;;2.67;1.60;;;;;;;9.00;81.21;95902.19;4992310;28;20487;-55
2020/12/22 04:04:34;;;;;;;2.05;1.30;;;;;;;9.09;81.18;95897.53;4992583;28;20049;-51
2020/12/22 04:07:00;;;;;;;1.77;1.17;;;;;;;8.91;82.96;95896.00;4992508;28;20368;-50
2020/12/22 04:09:27;;;;;;;1.52;1.08;;;;;;;8.93;83.01;95901.84;4991599;28;20049;-55
2020/12/22 04:11:53;;;;;;;1.20;1.00;;;;;;;8.92;83.58;95894.88;4992418;28;20133;-56
2020/12/22 04:14:20;;;;;;;1.10;0.90;;;;;;;9.10;83.18;95904.53;4991817;28;20060;-55
2020/12/22 04:16:49;;;;;;;1.25;0.90;;;;;;;9.03;83.52;95893.41;4992384;28;20054;-55
2020/12/22 04:19:16;;;;;;;1.45;0.90;;;;;;;9.21;82.95;95904.16;4990609;28;20054;-56
2020/12/22 04:21:43;;;;;;;1.35;0.98;;;;;;;9.26;82.58;95906.66;4992560;28;20058;-57
2020/12/22 04:24:10;;;;;;;1.60;1.00;;;;;;;9.31;82.28;95893.78;4991681;28;20105;-54
2020/12/22 04:26:37;;;;;;;0.82;0.80;;;;;;;9.39;82.10;95888.66;4990958;28;20050;-53
2020/12/22 04:29:03;;;;;;;1.05;0.88;;;;;;;9.32;81.90;95892.66;4991393;28;20058;-51
2020/12/22 04:31:30;;;;;;;1.23;1.00;;;;;;;9.44;81.46;95908.19;4992498;28;20051;-57
2020/12/22 04:33:57;;;;;;;1.13;0.90;;;;;;;9.47;81.05;95902.13;4991704;28;20108;-56
2020/12/22 04:36:25;;;;;;;2.60;0.98;;;;;;;9.52;80.59;95909.25;4992046;28;20452;-57
2020/12/22 04:38:52;;;;;;;2.63;1.10;;;;;;;9.58;80.22;95916.84;4991296;28;20050;-55
2020/12/22 04:41:19;;;;;;;1.35;0.88;;;;;;;9.63;80.05;95912.41;4992149;28;20054;-57
2020/12/22 04:43:47;;;;;;;1.15;0.90;;;;;;;9.57;80.33;95912.56;4991829;28;20061;-57
2020/12/22 04:46:20;;;;;;;1.45;0.90;;;;;;;9.70;79.81;95899.94;4992022;28;20530;-56
2020/12/22 04:48:54;;;;;;;1.08;0.90;;;;;;;9.66;79.49;95887.44;5012649;23;20050;-51
2020/12/22 04:51:22;;;;;;;1.85;0.90;;;;;;;9.79;79.06;95900.69;5011095;28;20516;-51
2020/12/22 04:54:05;;;;;;;1.23;0.85;;;;;;;9.94;78.31;95912.81;5009957;28;20065;-53
2020/12/22 04:56:32;;;;;;;0.80;0.68;;;;;;;9.80;78.71;95904.19;5010437;28;20543;-54
2020/12/22 04:58:58;;;;;;;1.38;0.73;;;;;;;9.81;78.71;95911.16;5010185;28;20467;-54
2020/12/22 05:01:25;;;;;;;0.65;0.55;;;;;;;9.85;78.22;95906.69;5011258;28;20062;-50
2020/12/22 05:03:51;;;;;;;1.17;0.80;;;;;;;9.91;78.17;95913.50;5010318;28;20073;-52
2020/12/22 05:06:17;;;;;;;1.90;0.60;;;;;;;9.81;78.18;95903.88;5010258;28;20054;-50
2020/12/22 05:08:45;;;;;;;0.98;0.80;;;;;;;9.92;77.90;95912.38;5011459;28;20145;-52
2020/12/22 05:11:16;;;;;;;1.20;0.65;;;;;;;9.77;78.20;95921.03;5014918;28;20143;-49
2020/12/22 05:13:46;;;;;;;1.33;0.60;;;;;;;9.88;77.86;95922.25;5013851;28;20518;-53
2020/12/22 05:16:12;;;;;;;0.77;0.60;;;;;;;10.00;77.31;95946.66;5014310;28;20458;-52
2020/12/22 05:18:38;;;;;;;1.15;0.63;;;;;;;10.19;76.50;95932.69;5013809;28;20153;-53
2020/12/22 05:21:18;;;;;;;1.20;0.60;;;;;;;10.07;76.76;95946.94;5014896;28;20092;-55
2020/12/22 05:23:47;;;;;;;0.93;0.70;;;;;;;10.20;76.43;95945.06;5013154;28;20139;-51
2020/12/22 05:26:17;;;;;;;1.35;0.50;;;;;;;10.16;76.27;95954.19;5014163;28;20514;-51
2020/12/22 05:28:44;;;;;;;0.70;0.50;;;;;;;10.10;76.22;95931.16;5013505;28;20076;-54
2020/12/22 05:31:16;;;;;;;1.30;0.60;;;;;;;10.04;77.02;95944.06;5014390;28;20053;-56
2020/12/22 05:33:46;;;;;;;0.77;0.50;;;;;;;10.19;75.68;95913.75;5014224;28;20163;-51
2020/12/22 05:36:13;;;;;;;1.73;0.40;;;;;;;10.16;75.94;95916.34;5014113;28;20057;-48
2020/12/22 05:38:43;;;;;;;0.70;0.50;;;;;;;10.17;76.01;95932.25;5013489;28;20501;-49
2020/12/22 05:41:09;;;;;;;0.63;0.40;;;;;;;10.14;76.45;95932.09;5014643;28;20054;-48
2020/12/22 05:43:40;;;;;;;0.40;0.38;;;;;;;10.23;75.90;95916.59;5013561;28;20160;-48
2020/12/22 05:46:08;;;;;;;0.63;0.38;;;;;;;10.51;74.62;95923.06;5013666;28;20521;-50
2020/12/22 05:48:35;;;;;;;0.57;0.40;;;;;;;10.42;74.25;95916.16;5013147;28;20054;-49
2020/12/22 05:51:08;;;;;;;0.63;0.40;;;;;;;10.53;74.12;95920.84;5014172;28;20052;-51
2020/12/22 05:53:45;;;;;;;2.60;0.70;;;;;;;10.66;73.99;95918.97;5013443;28;20066;-48
2020/12/22 05:56:18;;;;;;;1.52;0.38;;;;;;;10.58;74.43;95932.56;5013435;28;20057;-51
2020/12/22 05:58:45;;;;;;;0.38;0.35;;;;;;;10.69;73.80;95947.25;5013484;28;20132;-53
2020/12/22 06:01:13;;;;;;;0.47;0.43;;;;;;;10.87;73.01;95929.75;5014223;28;20057;-48
2020/12/22 06:03:42;;;;;;;0.73;0.50;;;;;;;10.64;74.13;95937.44;5012947;28;20057;-50
2020/12/22 06:06:09;;;;;;;0.77;0.50;;;;;;;10.65;73.92;95935.53;5013388;28;20463;-52
2020/12/22 06:08:37;;;;;;;0.90;0.50;;;;;;;10.60;73.99;95933.84;5013004;28;20054;-49
2020/12/22 06:11:05;;;;;;;1.65;0.50;;;;;;;10.70;73.50;95938.03;5013982;28;20046;-49
2020/12/22 06:13:32;;;;;;;0.70;0.45;;;;;;;10.68;73.65;95934.88;5013203;28;20061;-53
2020/12/22 06:16:01;;;;;;;1.23;0.50;;;;;;;10.61;73.76;95919.16;5013146;28;20081;-48
2020/12/22 06:18:28;;;;;;;0.73;0.57;;;;;;;10.61;73.65;95926.50;5011200;28;20292;-48
2020/12/22 06:20:57;;;;;;;2.25;0.60;;;;;;;10.75;73.20;95932.41;5013099;28;20199;-54
2020/12/22 06:23:24;;;;;;;1.05;0.57;;;;;;;10.80;73.01;95928.72;5012865;28;20049;-51
2020/12/22 06:26:05;;;;;;;1.00;0.52;;;;;;;10.74;72.95;95925.41;5013012;28;20050;-48
2020/12/22 06:28:32;;;;;;;0.90;0.50;;;;;;;10.62;73.26;95906.44;5012707;28;20539;-52
2020/12/22 06:30:59;;;;;;;1.08;0.57;;;;;;;10.70;73.25;95916.41;5013601;28;20050;-50
2020/12/22 06:33:35;;;;;;;0.65;0.60;;;;;;;10.55;73.59;95896.16;5012988;28;20109;-52
2020/12/22 06:36:03;;;;;;;0.70;0.50;;;;;;;10.77;72.88;95913.94;5013027;28;20450;-53
2020/12/22 06:38:57;;;;;;;1.15;0.60;;;;;;;10.70;73.35;95917.19;5012759;28;20238;-52
2020/12/22 06:41:33;;;;;;;0.57;0.40;;;;;;;10.86;72.94;95906.53;5012989;28;20077;-49
2020/12/22 06:44:15;;;;;;;1.33;0.80;;;;;;;10.71;73.29;95916.03;5012755;28;20050;-51
2020/12/22 06:46:45;;;;;;;1.27;0.50;;;;;;;10.83;72.57;95915.31;5012626;28;20046;-48
2020/12/22 06:49:13;;;;;;;1.35;0.50;;;;;;;10.83;72.71;95918.00;5011838;28;20049;-48
2020/12/22 06:51:41;;;;;;;1.77;0.60;;;;;;;10.60;72.91;95885.13;5012959;28;20061;-47
2020/12/22 06:54:14;;;;;;;0.90;0.50;;;;;;;10.94;72.23;95913.75;5010831;28;20060;-48
2020/12/22 06:56:47;;;;;;;0.65;0.52;;;;;;;11.00;71.88;95919.75;5012178;28;20121;-48
2020/12/22 06:59:36;;;;;;;0.90;0.60;;;;;;;10.85;72.65;95937.41;5012045;28;20752;-51
2020/12/22 07:02:03;;;;;;;1.00;0.50;;;;;;;10.87;72.61;95920.84;5012139;28;20482;-50
2020/12/22 07:04:39;;;;;;;1.70;0.50;;;;;;;11.02;72.02;95927.53;5012962;28;20053;-48
2020/12/22 07:07:06;;;;;;;1.83;0.50;;;;;;;11.07;71.50;95924.63;5011220;28;20558;-51
2020/12/22 07:09:34;;;;;;;0.93;0.60;;;;;;;11.20;71.15;95929.72;5012430;28;20517;-53
2020/12/22 07:12:09;;;;;;;1.52;0.50;;;;;;;11.19;71.01;95936.25;5012516;28;20540;-47
2020/12/22 07:14:56;;;;;;;0.63;0.50;;;;;;;11.07;71.64;95933.53;5012642;28;20244;-47
2020/12/22 07:17:23;;;;;;;1.38;0.52;;;;;;;10.96;71.90;95935.88;5011221;28;20140;-50
2020/12/22 07:19:53;;;;;;;0.50;0.50;;;;;;;11.11;71.35;95929.00;5012612;28;20041;-51
2020/12/22 07:22:34;;;;;;;0.80;0.60;;;;;;;11.11;71.49;95933.63;5011758;28;20506;-51
2020/12/22 07:25:02;;;;;;;0.80;0.57;;;;;;;11.12;71.39;95949.56;5012738;28;20096;-50
2020/12/22 07:27:30;;;;;;;0.75;0.70;;;;;;;11.12;71.08;95927.13;5011049;28;20049;-51
2020/12/22 07:29:57;;;;;;;1.38;0.70;;;;;;;11.07;71.29;95946.28;5012470;28;20108;-50
2020/12/22 07:32:24;;;;;;;0.45;0.40;;;;;;;11.14;70.93;95930.25;5011803;28;20161;-52
2020/12/22 07:34:50;;;;;;;1.38;0.60;;;;;;;11.22;71.24;95941.00;5012173;28;20180;-49
2020/12/22 07:37:17;;;;;;;0.55;0.50;;;;;;;11.31;70.58;95937.41;5011056;28;20493;-51
2020/12/22 07:39:43;;;;;;;0.90;0.40;;;;;;;11.34;70.54;95944.84;5011519;28;20073;-52
2020/12/22 07:42:19;;;;;;;0.38;0.30;;;;;;;11.49;69.96;95954.25;5011633;28;20057;-49
2020/12/22 07:44:47;;;;;;;0.60;0.50;;;;;;;11.49;70.00;95941.50;4992857;28;20053;-52
2020/12/22 07:47:15;;;;;;;1.00;0.50;;;;;;;11.43;70.09;95938.19;5007016;28;20062;-50
2020/12/22 07:49:42;;;;;;;1.45;0.47;;;;;;;11.61;69.51;95946.13;5012109;28;20471;-49
2020/12/22 07:52:16;;;;;;;0.57;0.40;;;;;;;11.35;70.24;95939.13;5011519;28;20148;-52
2020/12/22 07:54:55;;;;;;;0.85;0.60;;;;;;;11.64;69.59;95940.03;5012734;28;20045;-49
2020/12/22 07:57:22;;;;;;;0.38;0.38;;;;;;;11.14;69.40;95876.09;5010733;28;20092;-49
2020/12/22 07:59:51;;;;;;;0.55;0.40;;;;;;;11.76;68.83;95945.44;5012013;28;20048;-50
2020/12/22 08:02:23;;;;;;;0.38;0.38;;;;;;;11.51;69.89;95954.72;5011211;28;20084;-50
2020/12/22 08:04:50;;;;;;;1.00;0.50;;;;;;;11.60;69.54;95960.78;5011768;28;20133;-48
2020/12/22 08:07:18;;;;;;;0.52;0.35;;;;;;;11.68;69.37;95941.72;5009985;28;20128;-50
2020/12/22 08:09:44;;;;;;;0.52;0.40;;;;;;;11.64;69.27;95943.53;5010360;28;20125;-50
2020/12/22 08:12:11;;;;;;;1.40;0.50;;;;;;;11.51;69.69;95950.09;4993374;28;20417;-50
2020/12/22 08:14:40;;;;;;;0.40;0.30;;;;;;;11.79;69.19;95952.91;5011765;28;20532;-49
2020/12/22 08:17:16;;;;;;;0.70;0.57;;;;;;;11.79;68.92;95952.13;5010452;28;20128;-48
2020/12/22 08:19:45;;;;;;;0.57;0.43;;;;;;;11.81;69.06;95955.28;5011797;28;20050;-48
2020/12/22 08:22:16;;;;;;;0.95;0.50;;;;;;;11.80;68.92;95953.72;5011540;28;20427;-48
2020/12/22 08:24:43;;;;;;;1.10;0.50;;;;;;;11.90;68.56;95954.06;5011731;28;20104;-50
2020/12/22 08:27:11;;;;;;;0.70;0.70;;;;;;;11.76;68.61;95952.78;5010273;28;20072;-53
2020/12/22 08:29:39;;;;;;;0.85;0.35;;;;;;;11.96;68.22;95956.53;5011574;28;20080;-49
2020/12/22 08:32:06;;;;;;;0.57;0.30;;;;;;;12.03;67.81;95960.28;5010063;28;20053;-48
2020/12/22 08:34:32;;;;;;;0.68;0.40;;;;;;;11.92;68.42;95959.91;5011741;28;20062;-48
2020/12/22 08:37:09;;;;;;;0.63;0.55;;;;;;;12.03;67.44;95990.09;5009972;28;20054;-52
2020/12/22 08:39:43;;;;;;;0.55;0.40;;;;;;;12.08;68.12;95965.44;5011496;28;20088;-51
2020/12/22 08:42:10;;;;;;;1.75;0.60;;;;;;;12.01;67.96;95975.31;5010054;28;20049;-49
2020/12/22 08:44:50;;;;;;;0.82;0.40;;;;;;;12.03;67.80;95975.75;5014703;28;20479;-51
2020/12/22 08:47:18;;;;;;;0.77;0.45;;;;;;;12.02;67.50;95987.72;5014087;28;20054;-52
2020/12/22 08:49:46;;;;;;;0.45;0.30;;;;;;;12.09;67.71;95979.78;5015346;28;20371;-48
2020/12/22 08:52:15;;;;;;;0.90;0.57;;;;;;;12.02;67.45;95988.50;5014533;28;20050;-51
2020/12/22 08:54:42;;;;;;;1.15;0.50;;;;;;;12.16;67.26;95988.97;5015542;28;20084;-49
2020/12/22 08:57:10;;;;;;;0.75;0.50;;;;;;;12.16;67.80;95991.69;5013003;28;20050;-48
2020/12/22 08:59:37;;;;;;;0.98;0.40;;;;;;;12.32;66.64;96010.75;5015464;28;20141;-51
2020/12/22 09:02:03;;;;;;;0.50;0.40;;;;;;;12.24;66.82;96000.81;5014285;28;20064;-49
2020/12/22 09:04:32;;;;;;;0.75;0.40;;;;;;;12.37;66.34;95993.44;5014952;28;20136;-53
2020/12/22 09:06:59;;;;;;;0.65;0.40;;;;;;;12.33;66.44;95992.56;5013380;28;20058;-54
2020/12/22 09:09:30;;;;;;;0.70;0.50;;;;;;;12.55;66.29;95994.78;5015174;28;20128;-48
2020/12/22 09:12:08;;;;;;;5.15;2.88;;;;;;;12.64;65.59;95994.63;5014388;28;20069;-49
2020/12/22 09:14:46;;;;;;;0.40;0.40;;;;;;;12.58;65.99;95999.53;5015292;28;20049;-51
2020/12/22 09:17:25;;;;;;;0.30;0.30;;;;;;;12.60;65.84;96001.88;5013844;28;20435;-51
2020/12/22 09:19:52;;;;;;;1.13;0.60;;;;;;;12.36;66.08;95981.81;5014575;28;20447;-53
2020/12/22 09:22:23;;;;;;;0.73;0.40;;;;;;;12.70;65.06;95997.91;5014966;28;20057;-49
2020/12/22 09:24:55;;;;;;;0.50;0.43;;;;;;;12.58;65.82;95998.75;5014388;28;20080;-54
2020/12/22 09:27:29;;;;;;;2.30;0.50;;;;;;;12.76;65.06;95989.16;5013489;28;20464;-50
2020/12/22 09:29:56;;;;;;;0.70;0.40;;;;;;;12.74;64.52;95999.59;5013824;28;20073;-53
2020/12/22 09:32:23;;;;;;;1.30;0.63;;;;;;;12.75;65.11;95992.22;5013525;28;20080;-48
2020/12/22 09:34:49;;;;;;;0.45;0.40;;;;;;;12.67;64.90;95993.16;5014420;28;20050;-51
2020/12/22 09:37:16;;;;;;;1.73;0.40;;;;;;;12.68;65.25;95997.47;5012989;28;20108;-51
2020/12/22 09:39:45;;;;;;;0.40;0.40;;;;;;;12.69;64.63;95999.03;5013635;28;20053;-50
2020/12/22 09:42:12;;;;;;;2.28;0.60;;;;;;;12.70;64.55;95995.97;5014438;28;20132;-51
2020/12/22 09:44:38;;;;;;;0.60;0.45;;;;;;;12.69;64.67;96016.09;5013448;28;20148;-51
2020/12/22 09:47:04;;;;;;;0.47;0.40;;;;;;;12.65;64.19;95990.00;5013434;28;20130;-49
2020/12/22 09:49:31;;;;;;;0.57;0.57;;;;;;;12.74;63.70;96002.31;5014016;28;20077;-50
2020/12/22 09:51:58;;;;;;;1.77;0.40;;;;;;;12.64;63.95;95991.91;5013682;28;20129;-52
2020/12/22 09:54:25;;;;;;;0.70;0.50;;;;;;;12.68;63.79;95998.25;5013945;28;20566;-51
2020/12/22 09:56:51;;;;;;;0.32;0.30;;;;;;;12.73;63.89;96003.41;5012470;28;20446;-54
2020/12/22 09:59:18;;;;;;;0.70;0.50;;;;;;;12.73;64.13;95987.13;5013809;28;20133;-53
2020/12/22 10:01:46;;;;;;;0.73;0.50;;;;;;;12.84;63.48;95990.16;5012929;28;20129;-52
2020/12/22 10:04:13;;;;;;;0.68;0.30;;;;;;;12.85;63.21;95981.66;5012664;28;20045;-54
2020/12/22 10:06:39;;;;;;;0.55;0.40;;;;;;;12.74;63.08;95991.44;5012382;28;20172;-52
2020/12/22 10:09:06;;;;;;;0.40;0.40;;;;;;;12.86;63.15;95983.25;5013913;28;20124;-52
2020/12/22 10:11:34;;;;;;;0.60;0.40;;;;;;;12.86;62.75;95994.09;5011342;28;20120;-55
2020/12/22 10:14:04;;;;;;;0.40;0.35;;;;;;;12.86;62.89;95998.75;5002948;28;20057;-56
2020/12/22 10:16:33;;;;;;;0.50;0.50;;;;;;;12.85;62.94;95975.44;5012507;28;20547;-54
2020/12/22 10:19:00;;;;;;;0.80;0.45;;;;;;;12.76;63.22;95978.31;5013606;28;20558;-52
2020/12/22 10:21:27;;;;;;;0.98;0.70;;;;;;;12.79;63.23;95991.19;5009934;28;20408;-52
2020/12/22 10:23:59;;;;;;;0.63;0.43;;;;;;;12.73;63.12;96006.13;5013276;28;20070;-51
2020/12/22 10:26:27;;;;;;;2.28;0.73;;;;;;;12.72;63.17;96001.06;5012758;28;20061;-51
2020/12/22 10:28:54;;;;;;;0.47;0.38;;;;;;;12.60;64.17;95997.25;5013480;28;20050;-52
2020/12/22 10:31:22;;;;;;;1.20;0.50;;;;;;;12.68;64.62;96008.31;5012662;28;20050;-53
2020/12/22 10:33:49;;;;;;;0.98;0.50;;;;;;;12.76;64.51;95991.88;5013601;28;20046;-52
2020/12/22 10:36:17;;;;;;;1.10;0.55;;;;;;;12.84;63.73;95996.38;5011729;28;20121;-50
2020/12/22 10:38:51;;;;;;;0.80;0.40;;;;;;;12.65;64.29;96004.38;5012591;28;20069;-52
2020/12/22 10:41:18;;;;;;;0.70;0.50;;;;;;;12.75;63.99;96014.75;5012569;28;20499;-52
2020/12/22 10:43:47;;;;;;;0.70;0.50;;;;;;;12.69;64.03;96013.41;5013230;28;20360;-53
2020/12/22 10:46:14;;;;;;;0.55;0.50;;;;;;;12.97;62.99;96002.56;5012240;28;20056;-51
2020/12/22 10:48:43;;;;;;;1.20;0.40;;;;;;;12.86;62.77;96004.97;5013314;28;20046;-53
2020/12/22 10:51:10;;;;;;;1.88;0.57;;;;;;;12.83;62.67;96007.56;5029830;23;20600;-55
2020/12/22 10:53:36;;;;;;;1.33;0.50;;;;;;;12.80;62.98;96005.56;5012598;28;20049;-60
2020/12/22 10:56:13;;;;;;;0.50;0.40;;;;;;;12.94;62.83;96005.19;5012375;28;20045;-57
2020/12/22 10:58:41;;;;;;;0.30;0.30;;;;;;;12.94;62.21;96007.91;4997650;28;20112;-61
2020/12/22 11:01:14;;;;;;;0.55;0.55;;;;;;;12.99;62.22;95992.13;5012447;28;20120;-56
2020/12/22 11:03:42;;;;;;;2.13;1.30;;;;;;;12.95;62.15;96012.19;5013065;28;20388;-55
2020/12/22 11:06:35;;;;;;;1.33;0.57;;;;;;;13.06;61.95;96016.78;5011168;28;20073;-59
2020/12/22 11:09:01;;;;;;;1.08;0.38;;;;;;;12.88;61.79;96001.91;5006335;28;20076;-57
2020/12/22 11:11:29;;;;;;;2.40;0.45;;;;;;;13.11;61.72;95999.44;5011803;28;20092;-56
2020/12/22 11:13:56;;;;;;;0.75;0.40;;;;;;;13.06;61.45;96014.06;5013089;28;20588;-61
2020/12/22 11:16:26;;;;;;;0.60;0.43;;;;;;;12.93;61.30;95998.94;5011792;28;20410;-60
2020/12/22 11:18:53;;;;;;;0.22;0.22;;;;;;;13.00;61.16;96006.50;5013481;28;20054;-59
2020/12/22 11:21:23;;;;;;;0.52;0.30;;;;;;;13.00;61.59;96003.78;5011978;28;20394;-57
2020/12/22 11:23:50;;;;;;;2.22;0.70;;;;;;;12.85;61.71;95983.59;5012783;28;20049;-58
2020/12/22 11:26:20;;;;;;;0.57;0.30;;;;;;;12.95;61.72;96002.09;5011532;28;20088;-59
2020/12/22 11:28:48;;;;;;;1.48;0.50;;;;;;;12.98;62.69;96000.63;5012986;28;20169;-56
2020/12/22 11:31:14;;;;;;;0.98;0.40;;;;;;;12.80;65.25;96016.41;5007644;28;20053;-57
2020/12/22 11:33:42;;;;;;;5.13;0.50;;;;;;;12.54;68.66;96008.69;4991885;28;20128;-57
2020/12/22 11:36:15;;;;;;;0.65;0.40;;;;;;;12.30;70.74;96004.09;5001993;28;20053;-56
2020/12/22 11:38:43;;;;;;;2.35;1.02;;;;;;;12.28;71.01;95993.56;5009592;28;20054;-59
2020/12/22 11:41:10;;;;;;;0.82;0.50;;;;;;;12.29;70.33;96008.72;5009329;28;20046;-57
2020/12/22 11:43:37;;;;;;;0.85;0.50;;;;;;;12.21;70.51;95993.34;5012284;28;20133;-57